createdAt,value
2019-01-23T00:02:14.040Z,100590.88
2019-01-23T00:04:41.374Z,100603.42
2019-01-23T00:07:08.583Z,100602.53
2019-01-23T00:09:35.916Z,100603.84
2019-01-23T00:12:04.040Z,100599.95
2019-01-23T00:14:31.383Z,100604.75
2019-01-23T00:16:58.591Z,100601.28
2019-01-23T00:19:27.551Z,100608.20
2019-01-23T00:21:54.858Z,100600.37
2019-01-23T00:24:23.430Z,100602.49
2019-01-23T00:26:50.693Z,100605.05
2019-01-23T00:29:18.069Z,100597.61
2019-01-23T00:31:45.156Z,100598.48
2019-01-23T00:34:12.352Z,100601.52
2019-01-23T00:36:39.590Z,100600.66
2019-01-23T00:39:07.244Z,100593.70
2019-01-23T00:41:34.353Z,100604.15
2019-01-23T00:44:01.467Z,100593.32
2019-01-23T00:46:28.589Z,100595.08
2019-01-23T00:48:55.692Z,100594.68
2019-01-23T00:51:22.775Z,100591.20
2019-01-23T00:53:49.872Z,100582.08
2019-01-23T00:56:17.077Z,100587.31
2019-01-23T00:58:49.178Z,100585.58
2019-01-23T01:01:13.188Z,100586.91
2019-01-23T01:03:40.283Z,100577.79
2019-01-23T01:06:07.389Z,100580.42
2019-01-23T01:08:34.475Z,100577.81
2019-01-23T01:11:01.876Z,100579.98
2019-01-23T01:13:28.963Z,100577.38
2019-01-23T01:15:56.050Z,100578.68
2019-01-23T01:18:23.145Z,100583.41
2019-01-23T01:20:50.231Z,100585.09
2019-01-23T01:23:17.317Z,100584.59
2019-01-23T01:25:44.426Z,100586.30
2019-01-23T01:28:12.178Z,100589.29
2019-01-23T01:30:39.272Z,100586.23
2019-01-23T01:33:06.361Z,100588.37
2019-01-23T01:35:33.455Z,100584.92
2019-01-23T01:38:00.557Z,100591.92
2019-01-23T01:40:27.948Z,100589.34
2019-01-23T01:42:55.038Z,100591.92
2019-01-23T01:45:22.139Z,100589.73
2019-01-23T01:47:49.232Z,100591.03
2019-01-23T01:50:18.239Z,100593.63
2019-01-23T01:52:45.447Z,100592.77
2019-01-23T01:55:12.640Z,100594.47
2019-01-23T01:57:39.741Z,100591.44
2019-01-23T02:00:11.041Z,100586.64
2019-01-23T02:02:38.127Z,100592.22
2019-01-23T02:05:05.880Z,100594.77
2019-01-23T02:07:32.973Z,100590.39
2019-01-23T02:10:00.072Z,100592.09
2019-01-23T02:12:27.171Z,100584.70
2019-01-23T02:14:54.276Z,100585.97
2019-01-23T02:17:21.380Z,100589.87
2019-01-23T02:19:48.503Z,100590.30
2019-01-23T02:22:15.604Z,100587.70
2019-01-23T02:24:42.836Z,100589.00
2019-01-23T02:27:10.223Z,100594.20
2019-01-23T02:29:39.238Z,100596.81
2019-01-23T02:32:06.379Z,100595.94
2019-01-23T02:34:33.620Z,100599.45
2019-01-23T02:37:00.940Z,100604.67
2019-01-23T02:39:30.054Z,100603.84
2019-01-23T02:41:59.124Z,100602.60
2019-01-23T02:44:26.224Z,100599.59
2019-01-23T02:46:53.311Z,100601.36
2019-01-23T02:49:20.399Z,100607.00
2019-01-23T02:51:47.497Z,100601.38
2019-01-23T02:54:14.601Z,100607.95
2019-01-23T02:56:41.699Z,100604.97
2019-01-23T02:59:08.799Z,100604.56
2019-01-23T03:01:35.894Z,100605.89
2019-01-23T03:04:03.398Z,100595.91
2019-01-23T03:06:30.489Z,100598.53
2019-01-23T03:08:57.588Z,100605.51
2019-01-23T03:11:24.673Z,100600.73
2019-01-23T03:13:51.762Z,100603.36
2019-01-23T03:16:18.860Z,100606.40
2019-01-23T03:18:45.947Z,100605.48
2019-01-23T03:21:13.029Z,100608.92
2019-01-23T03:23:40.327Z,100605.89
2019-01-23T03:26:07.435Z,100601.09
2019-01-23T03:28:34.537Z,100605.42
2019-01-23T03:31:01.866Z,100604.09
2019-01-23T03:33:28.968Z,100605.38
2019-01-23T03:35:56.059Z,100609.25
2019-01-23T03:38:23.161Z,100611.02
2019-01-23T03:40:50.262Z,100606.70
2019-01-23T03:43:17.355Z,100609.33
2019-01-23T03:45:44.465Z,100610.64
2019-01-23T03:48:11.551Z,100606.76
2019-01-23T03:50:38.644Z,100601.98
2019-01-23T03:53:05.746Z,100609.41
2019-01-23T03:55:32.853Z,100600.32
2019-01-23T03:57:59.952Z,100613.80
2019-01-23T04:00:27.051Z,100604.69
2019-01-23T04:02:54.124Z,100599.88
2019-01-23T04:05:21.245Z,100606.83
2019-01-23T04:07:48.422Z,100597.23
2019-01-23T04:10:16.367Z,100603.69
2019-01-23T04:12:43.470Z,100606.67
2019-01-23T04:15:11.523Z,100604.05
2019-01-23T04:17:38.622Z,100608.77
2019-01-23T04:20:09.905Z,100610.53
2019-01-23T04:22:36.995Z,100612.67
2019-01-23T04:25:05.031Z,100613.97
2019-01-23T04:27:32.124Z,100613.53
2019-01-23T04:29:59.209Z,100611.39
2019-01-23T04:32:26.501Z,100614.90
2019-01-23T04:34:53.604Z,100614.52
2019-01-23T04:37:20.711Z,100618.91
2019-01-23T04:39:47.800Z,100611.09
2019-01-23T04:42:14.899Z,100616.82
2019-01-23T04:44:41.995Z,100616.84
2019-01-23T04:47:09.085Z,100617.33
2019-01-23T04:49:36.168Z,100616.89
2019-01-23T04:52:10.871Z,100619.92
2019-01-23T04:54:37.972Z,100621.69
2019-01-23T04:57:05.060Z,100613.90
2019-01-23T04:59:32.152Z,100611.72
2019-01-23T05:01:59.242Z,100616.53
2019-01-23T05:04:26.345Z,100613.05
2019-01-23T05:06:53.445Z,100617.42
2019-01-23T05:09:20.648Z,100617.82
2019-01-23T05:11:47.749Z,100614.35
2019-01-23T05:14:14.836Z,100620.44
2019-01-23T05:16:41.945Z,100617.39
2019-01-23T05:19:09.042Z,100615.66
2019-01-23T05:21:36.177Z,100617.82
2019-01-23T05:24:03.603Z,100622.62
2019-01-23T05:26:30.696Z,100620.91
2019-01-23T05:28:57.799Z,100620.49
2019-01-23T05:31:24.959Z,100629.20
2019-01-23T05:33:52.045Z,100620.95
2019-01-23T05:36:19.142Z,100623.98
2019-01-23T05:38:46.237Z,100624.45
2019-01-23T05:41:13.342Z,100629.66
2019-01-23T05:43:40.431Z,100621.41
2019-01-23T05:46:07.535Z,100628.33
2019-01-23T05:48:34.647Z,100629.59
2019-01-23T05:51:01.733Z,100635.22
2019-01-23T05:53:28.837Z,100635.63
2019-01-23T05:55:55.993Z,100638.17
2019-01-23T05:58:23.100Z,100635.51
2019-01-23T06:00:50.243Z,100635.52
2019-01-23T06:03:17.329Z,100641.56
2019-01-23T06:05:44.618Z,100637.17
2019-01-23T06:08:11.729Z,100641.05
2019-01-23T06:10:38.823Z,100644.47
2019-01-23T06:13:05.919Z,100650.54
2019-01-23T06:15:33.012Z,100650.57
2019-01-23T06:18:00.113Z,100657.11
2019-01-23T06:20:27.210Z,100656.21
2019-01-23T06:22:54.310Z,100661.45
2019-01-23T06:25:21.426Z,100666.25
2019-01-23T06:27:48.505Z,100670.19
2019-01-23T06:30:17.821Z,100664.11
2019-01-23T06:32:44.956Z,100669.72
2019-01-23T06:35:12.044Z,100673.23
2019-01-23T06:37:39.144Z,100673.63
2019-01-23T06:40:07.441Z,100667.95
2019-01-23T06:42:34.552Z,100675.31
2019-01-23T06:45:01.652Z,100677.02
2019-01-23T06:47:28.757Z,100676.98
2019-01-23T06:49:55.854Z,100680.89
2019-01-23T06:52:22.956Z,100686.06
2019-01-23T06:54:50.082Z,100683.84
2019-01-23T06:57:17.175Z,100686.41
2019-01-23T06:59:44.278Z,100682.90
2019-01-23T07:02:11.473Z,100692.84
2019-01-23T07:04:38.570Z,100694.55
2019-01-23T07:07:06.610Z,100697.11
2019-01-23T07:09:33.879Z,100696.21
2019-01-23T07:12:01.007Z,100705.32
2019-01-23T07:14:28.159Z,100701.89
2019-01-23T07:16:55.217Z,100701.48
2019-01-23T07:19:22.356Z,100711.54
2019-01-23T07:21:49.447Z,100704.56
2019-01-23T07:24:16.536Z,100711.54
2019-01-23T07:26:43.664Z,100711.97
2019-01-23T07:29:10.807Z,100713.67
2019-01-23T07:31:37.906Z,100718.87
2019-01-23T07:34:05.101Z,100715.84
2019-01-23T07:36:32.226Z,100717.14
2019-01-23T07:38:59.347Z,100727.99
2019-01-23T07:41:26.435Z,100726.69
2019-01-23T07:43:53.568Z,100723.69
2019-01-23T07:46:20.696Z,100726.77
2019-01-23T07:48:47.847Z,100722.02
2019-01-23T07:51:14.957Z,100724.19
2019-01-23T07:53:42.057Z,100718.98
2019-01-23T07:56:09.234Z,100718.59
2019-01-23T07:58:36.331Z,100722.05
2019-01-23T08:01:03.653Z,100724.27
2019-01-23T08:03:30.761Z,100715.18
2019-01-23T08:05:57.863Z,100719.98
2019-01-23T08:08:24.992Z,100724.80
2019-01-23T08:10:52.095Z,100719.15
2019-01-23T08:13:19.339Z,100721.33
2019-01-23T08:15:46.482Z,100725.69
2019-01-23T08:18:13.591Z,100724.02
2019-01-23T08:20:40.693Z,100726.69
2019-01-23T08:23:07.790Z,100732.80
2019-01-23T08:25:34.897Z,100737.17
2019-01-23T08:28:01.992Z,100739.77
2019-01-23T08:30:29.118Z,100738.87
2019-01-23T08:32:56.235Z,100737.61
2019-01-23T08:35:23.875Z,100736.77
2019-01-23T08:37:51.008Z,100736.36
2019-01-23T08:40:18.110Z,100736.39
2019-01-23T08:42:45.424Z,100736.39
2019-01-23T08:45:12.830Z,100735.55
2019-01-23T08:48:11.127Z,100735.58
2019-01-23T08:50:38.151Z,100737.31
2019-01-23T08:53:05.668Z,100744.73
2019-01-23T08:55:32.777Z,100743.42
2019-01-23T08:57:59.875Z,100742.58
2019-01-23T09:00:26.970Z,100744.78
2019-01-23T09:02:54.064Z,100743.04
2019-01-23T09:05:21.169Z,100742.17
2019-01-23T09:07:48.267Z,100740.82
2019-01-23T09:10:17.742Z,100743.77
2019-01-23T09:12:44.898Z,100755.00
2019-01-23T09:15:13.050Z,100751.50
2019-01-23T09:17:40.160Z,100754.54
2019-01-23T09:20:08.388Z,100753.70
2019-01-23T09:22:35.523Z,100748.12
2019-01-23T09:25:07.916Z,100747.71
2019-01-23T09:27:35.049Z,100747.30
2019-01-23T09:30:02.394Z,100746.88
2019-01-23T09:32:46.633Z,100753.80
2019-01-23T09:36:11.237Z,100754.60
2019-01-23T09:39:13.768Z,100757.17
2019-01-23T09:42:28.243Z,100758.02
2019-01-23T09:45:22.011Z,100757.61
2019-01-23T09:48:14.086Z,100764.16
2019-01-23T09:51:41.458Z,100770.73
2019-01-23T09:54:12.820Z,100761.66
2019-01-23T09:56:43.642Z,100753.50
2019-01-23T09:59:10.793Z,100764.38
2019-01-23T10:01:37.911Z,100764.81
2019-01-23T10:04:05.067Z,100756.97
2019-01-23T10:06:32.185Z,100766.94
2019-01-23T10:08:59.316Z,100763.05
2019-01-23T10:11:26.419Z,100761.38
2019-01-23T10:13:53.568Z,100767.48
2019-01-23T10:16:20.661Z,100767.48
2019-01-23T10:18:47.797Z,100766.13
2019-01-23T10:21:19.631Z,100769.95
2019-01-23T10:23:46.754Z,100763.81
2019-01-23T10:26:13.857Z,100765.52
2019-01-23T10:28:41.162Z,100766.36
2019-01-23T10:31:08.261Z,100774.55
2019-01-23T10:33:37.855Z,100769.33
2019-01-23T10:36:05.968Z,100770.61
2019-01-23T10:38:33.196Z,100770.61
2019-01-23T10:41:00.308Z,100772.84
2019-01-23T10:43:27.405Z,100774.58
2019-01-23T10:45:55.925Z,100775.84
2019-01-23T10:48:23.025Z,100772.81
2019-01-23T10:50:50.129Z,100773.24
2019-01-23T10:53:17.253Z,100778.05
2019-01-23T10:55:44.355Z,100773.77
2019-01-23T10:58:12.817Z,100781.62
2019-01-23T11:00:40.348Z,100772.12
2019-01-23T11:03:10.766Z,100780.89
2019-01-23T11:05:37.879Z,100781.36
2019-01-23T11:08:05.277Z,100779.61
2019-01-23T11:10:32.407Z,100781.79
2019-01-23T11:12:59.505Z,100785.27
2019-01-23T11:15:26.701Z,100783.98
2019-01-23T11:17:56.588Z,100782.69
2019-01-23T11:20:26.634Z,100781.77
2019-01-23T11:22:53.832Z,100782.14
2019-01-23T11:25:21.118Z,100785.62
2019-01-23T11:27:50.904Z,100789.98
2019-01-23T11:30:20.690Z,100787.44
2019-01-23T11:32:47.925Z,100787.03
2019-01-23T11:35:15.443Z,100785.34
2019-01-23T11:37:44.478Z,100786.25
2019-01-23T11:40:17.323Z,100785.40
2019-01-23T11:42:44.454Z,100791.02
2019-01-23T11:45:11.690Z,100787.11
2019-01-23T11:47:38.990Z,100789.75
2019-01-23T11:50:07.320Z,100794.98
2019-01-23T11:52:34.416Z,100791.48
2019-01-23T11:55:01.523Z,100790.97
2019-01-23T11:57:28.609Z,100793.52
2019-01-23T11:59:55.780Z,100791.78
2019-01-23T12:02:22.871Z,100790.52
2019-01-23T12:04:49.971Z,100792.68
2019-01-23T12:07:17.074Z,100793.09
2019-01-23T12:09:44.163Z,100792.63
2019-01-23T12:12:11.293Z,100789.09
2019-01-23T12:14:38.385Z,100788.20
2019-01-23T12:17:05.482Z,100790.34
2019-01-23T12:19:32.625Z,100782.52
2019-01-23T12:21:59.756Z,100788.63
2019-01-23T12:24:26.815Z,100790.80
2019-01-23T12:26:53.917Z,100785.56
2019-01-23T12:29:21.013Z,100782.08
2019-01-23T12:31:48.155Z,100786.45
2019-01-23T12:34:15.243Z,100786.92
2019-01-23T12:36:42.344Z,100782.11
2019-01-23T12:39:09.475Z,100783.04
2019-01-23T12:41:36.618Z,100781.33
2019-01-23T12:44:04.537Z,100780.92
2019-01-23T12:46:31.650Z,100782.25
2019-01-23T12:48:58.784Z,100786.63
2019-01-23T12:51:25.978Z,100784.45
2019-01-23T12:53:53.141Z,100792.68
2019-01-23T12:56:20.231Z,100791.81
2019-01-23T12:58:47.328Z,100791.38
2019-01-23T13:01:15.669Z,100806.61
2019-01-23T13:03:42.931Z,100807.95
2019-01-23T13:06:10.052Z,100807.08
2019-01-23T13:08:37.152Z,100815.33
2019-01-23T13:11:04.271Z,100817.10
2019-01-23T13:13:31.368Z,100826.63
2019-01-23T13:15:58.462Z,100830.08
2019-01-23T13:18:25.575Z,100826.98
2019-01-23T13:20:52.704Z,100827.32
2019-01-23T13:23:20.072Z,100829.46
2019-01-23T13:25:47.196Z,100833.37
2019-01-23T13:28:14.335Z,100826.42
2019-01-23T13:30:41.439Z,100830.33
2019-01-23T13:33:08.532Z,100833.41
2019-01-23T13:35:37.786Z,100832.54
2019-01-23T13:38:07.825Z,100831.57
2019-01-23T13:40:36.022Z,100833.27
2019-01-23T13:43:04.675Z,100840.63
2019-01-23T13:45:31.784Z,100841.45
2019-01-23T13:47:58.879Z,100846.67
2019-01-23T13:50:25.991Z,100844.50
2019-01-23T13:52:53.096Z,100842.77
2019-01-23T13:55:21.102Z,100849.71
2019-01-23T13:57:48.268Z,100851.45
2019-01-23T14:00:30.109Z,100851.41
2019-01-23T14:02:57.215Z,100863.17
2019-01-23T14:05:24.413Z,100858.86
2019-01-23T14:07:51.517Z,100866.21
2019-01-23T14:10:18.628Z,100862.23
2019-01-23T14:12:45.736Z,100865.59
2019-01-23T14:15:16.673Z,100858.61
2019-01-23T14:17:43.834Z,100857.73
2019-01-23T14:20:12.101Z,100856.83
2019-01-23T14:22:39.190Z,100855.53
2019-01-23T14:25:07.108Z,100860.73
2019-01-23T14:27:34.225Z,100855.13
2019-01-23T14:30:01.346Z,100862.95
2019-01-23T14:32:28.437Z,100861.17
2019-01-23T14:34:55.555Z,100868.98
2019-01-23T14:37:22.655Z,100868.12
2019-01-23T14:39:49.744Z,100872.94
2019-01-23T14:42:16.837Z,100870.80
2019-01-23T14:44:43.945Z,100872.62
2019-01-23T14:47:11.031Z,100871.78
2019-01-23T14:49:38.167Z,100877.00
2019-01-23T14:52:05.672Z,100871.35
2019-01-23T14:54:32.780Z,100877.91
2019-01-23T14:56:59.889Z,100878.38
2019-01-23T14:59:26.996Z,100879.72
2019-01-23T15:01:54.105Z,100876.67
2019-01-23T15:04:21.208Z,100881.89
2019-01-23T15:06:48.304Z,100883.19
2019-01-23T15:09:15.398Z,100888.44
2019-01-23T15:11:42.548Z,100888.00
2019-01-23T15:14:09.646Z,100891.44
2019-01-23T15:16:36.745Z,100889.70
2019-01-23T15:19:03.951Z,100895.34
2019-01-23T15:21:31.040Z,100897.09
2019-01-23T15:23:58.147Z,100897.09
2019-01-23T15:26:25.247Z,100904.47
2019-01-23T15:28:52.341Z,100901.86
2019-01-23T15:31:19.525Z,100903.12
2019-01-23T15:33:46.624Z,100905.27
2019-01-23T15:36:13.799Z,100910.47
2019-01-23T15:38:40.904Z,100906.13
2019-01-23T15:41:09.957Z,100910.91
2019-01-23T15:43:37.298Z,100908.73
2019-01-23T15:46:04.854Z,100909.56
2019-01-23T15:48:32.498Z,100909.92
2019-01-23T15:50:59.728Z,100910.70
2019-01-23T15:53:27.005Z,100910.67
2019-01-23T15:55:54.112Z,100907.63
2019-01-23T15:58:21.207Z,100910.23
2019-01-23T16:00:48.304Z,100916.70
2019-01-23T16:03:15.487Z,100919.73
2019-01-23T16:05:42.573Z,100920.56
2019-01-23T16:08:09.736Z,100927.03
2019-01-23T16:10:36.875Z,100928.28
2019-01-23T16:13:03.972Z,100929.98
2019-01-23T16:15:31.085Z,100929.94
2019-01-23T16:17:58.206Z,100938.14
2019-01-23T16:20:25.534Z,100936.83
2019-01-23T16:22:52.634Z,100939.39
2019-01-23T16:25:19.786Z,100944.08
2019-01-23T16:27:47.109Z,100943.16
2019-01-23T16:30:26.143Z,100951.77
2019-01-23T16:32:53.374Z,100949.94
2019-01-23T16:35:20.809Z,100955.95
2019-01-23T16:37:50.015Z,100947.24
2019-01-23T16:40:17.303Z,100950.66
2019-01-23T16:42:46.776Z,100948.87
2019-01-23T16:45:15.180Z,100953.54
2019-01-23T16:47:42.330Z,100951.27
2019-01-23T16:50:17.569Z,100954.20
2019-01-23T16:52:44.904Z,100951.53
2019-01-23T16:55:12.517Z,100954.08
2019-01-23T16:57:40.084Z,100952.27
2019-01-23T17:00:09.165Z,100956.55
2019-01-23T17:02:38.794Z,100959.55
2019-01-23T17:05:09.200Z,100959.09
2019-01-23T17:07:36.404Z,100961.16
2019-01-23T17:10:04.856Z,100966.73
2019-01-23T17:12:31.947Z,100961.48
2019-01-23T17:14:59.080Z,100968.39
2019-01-23T17:17:26.609Z,100964.38
2019-01-23T17:19:53.701Z,100962.97
2019-01-23T17:22:20.812Z,100960.30
2019-01-23T17:25:02.772Z,100963.70
2019-01-23T17:27:29.988Z,100961.03
2019-01-23T17:29:57.411Z,100967.05
2019-01-23T17:32:24.937Z,100956.14
2019-01-23T17:34:52.210Z,100969.56
2019-01-23T17:37:19.417Z,100968.20
2019-01-23T17:39:46.648Z,100967.76
2019-01-23T17:42:13.854Z,100966.70
2019-01-23T17:44:43.934Z,100969.23
2019-01-23T17:47:11.400Z,100970.47
2019-01-23T17:49:38.510Z,100971.70
2019-01-23T17:52:05.603Z,100974.24
2019-01-23T17:54:32.704Z,100974.17
2019-01-23T17:56:59.817Z,100974.05
2019-01-23T17:59:26.915Z,100979.89
2019-01-23T18:01:57.021Z,100972.75
2019-01-23T18:04:24.130Z,100978.73
2019-01-23T18:06:51.235Z,100978.66
2019-01-23T18:09:18.335Z,100982.91
2019-01-23T18:11:45.481Z,100976.27
2019-01-23T18:14:12.800Z,100977.05
2019-01-23T18:16:39.968Z,100973.52
2019-01-23T18:19:07.256Z,100987.73
2019-01-23T18:21:34.664Z,100983.31
2019-01-23T18:24:01.993Z,100986.59
2019-01-23T18:26:29.456Z,100988.55
2019-01-23T18:28:58.378Z,100988.80
2019-01-23T18:31:39.257Z,100992.91
2019-01-23T18:34:44.259Z,100985.87
2019-01-23T18:37:36.607Z,100991.75
2019-01-23T18:40:55.003Z,100982.54
2019-01-23T18:44:03.888Z,100987.91
2019-01-23T18:47:06.261Z,100991.16
2019-01-23T18:49:58.896Z,100991.77
2019-01-23T18:52:28.741Z,100996.27
2019-01-23T18:54:58.928Z,100991.30
2019-01-23T18:57:27.028Z,101000.55
2019-01-23T18:59:59.325Z,101000.02
2019-01-23T19:02:28.240Z,100989.20
2019-01-23T19:04:57.534Z,100992.08
2019-01-23T19:07:27.574Z,100995.59
2019-01-23T19:09:54.914Z,100997.25
2019-01-23T19:12:25.753Z,100995.25
2019-01-23T19:14:52.950Z,100998.68
2019-01-23T19:17:22.021Z,101000.60
2019-01-23T19:19:49.515Z,101004.06
2019-01-23T19:22:16.883Z,101000.34
2019-01-23T19:24:45.155Z,101000.13
2019-01-23T19:27:12.584Z,101003.32
2019-01-23T19:29:39.833Z,101005.70
2019-01-23T19:32:07.539Z,101008.20
2019-01-23T19:34:36.449Z,101016.39
2019-01-23T19:37:07.336Z,101010.34
2019-01-23T19:39:34.421Z,101015.12
2019-01-23T19:42:01.967Z,101018.70
2019-01-23T19:44:30.786Z,101018.42
2019-01-23T19:46:57.937Z,101024.09
2019-01-23T19:49:28.444Z,101025.39
2019-01-23T19:52:06.917Z,101029.45
2019-01-23T19:54:34.203Z,101028.27
2019-01-23T19:57:04.192Z,101032.25
2019-01-23T19:59:40.644Z,101028.89
2019-01-23T20:02:07.871Z,101035.82
2019-01-23T20:04:34.968Z,101035.03
2019-01-23T20:07:02.278Z,101034.70
2019-01-23T20:09:29.803Z,101042.14
2019-01-23T20:11:59.837Z,101048.28
2019-01-23T20:14:32.028Z,101050.84
2019-01-23T20:17:01.039Z,101052.84
2019-01-23T20:19:28.749Z,101050.22
2019-01-23T20:21:58.045Z,101052.24
2019-01-23T20:24:25.588Z,101061.17
2019-01-23T20:27:08.019Z,101058.25
2019-01-23T20:29:32.692Z,101056.41
2019-01-23T20:32:02.842Z,101066.35
2019-01-23T20:34:30.055Z,101068.49
2019-01-23T20:37:00.005Z,101074.13
2019-01-23T20:39:30.204Z,101080.69
2019-01-23T20:41:57.389Z,101082.17
2019-01-23T20:44:42.563Z,101088.95
2019-01-23T20:47:18.215Z,101090.09
2019-01-23T20:49:50.013Z,101105.70
2019-01-23T20:52:20.849Z,101089.88
2019-01-23T20:54:48.303Z,101103.76
2019-01-23T20:57:18.193Z,101107.85
2019-01-23T20:59:45.371Z,101110.62
2019-01-23T21:02:12.484Z,101106.92
2019-01-23T21:04:42.902Z,101117.89
2019-01-23T21:07:10.050Z,101117.13
2019-01-23T21:09:41.592Z,101121.61
2019-01-23T21:12:08.718Z,101113.52
2019-01-23T21:14:47.637Z,101110.11
2019-01-23T21:17:14.768Z,101114.53
2019-01-23T21:19:44.889Z,101110.66
2019-01-23T21:22:16.647Z,101117.23
2019-01-23T21:24:46.542Z,101121.63
2019-01-23T21:27:13.643Z,101118.19
2019-01-23T21:29:40.925Z,101130.90
2019-01-23T21:32:11.828Z,101128.73
2019-01-23T21:34:41.627Z,101130.34
2019-01-23T21:37:08.761Z,101130.27
2019-01-23T21:39:41.225Z,101132.17
2019-01-23T21:42:11.109Z,101127.53
2019-01-23T21:44:43.938Z,101132.02
2019-01-23T21:47:13.339Z,101135.06
2019-01-23T21:49:40.446Z,101135.98
2019-01-23T21:52:07.539Z,101130.80
2019-01-23T21:54:34.659Z,101136.02
2019-01-23T21:57:04.646Z,101135.98
2019-01-23T21:59:31.769Z,101136.92
2019-01-23T22:02:02.728Z,101137.80
2019-01-23T22:04:29.828Z,101134.85
2019-01-23T22:07:00.020Z,101132.17
2019-01-23T22:09:30.000Z,101126.91
2019-01-23T22:11:59.751Z,101137.71
2019-01-23T22:14:31.313Z,101133.84
2019-01-23T22:16:58.292Z,101140.81
2019-01-23T22:19:25.433Z,101142.13
2019-01-23T22:21:53.480Z,101140.39
2019-01-23T22:24:20.754Z,101142.92
2019-01-23T22:26:49.951Z,101141.95
2019-01-23T22:29:17.383Z,101144.46
2019-01-23T22:32:06.469Z,101138.60
2019-01-23T22:34:35.851Z,101139.80
2019-01-23T22:37:02.987Z,101146.62
2019-01-23T22:39:37.556Z,101145.66
2019-01-23T22:42:07.002Z,101149.49
2019-01-23T22:44:34.225Z,101151.55
2019-01-23T22:47:09.700Z,101149.30
2019-01-23T22:49:40.044Z,101157.47
2019-01-23T22:52:07.143Z,101160.23
2019-01-23T22:54:35.132Z,101165.13
2019-01-23T22:57:02.254Z,101164.10
2019-01-23T22:59:29.372Z,101159.76
2019-01-23T23:01:57.839Z,101165.84
2019-01-23T23:04:28.001Z,101161.17
2019-01-23T23:06:55.091Z,101165.84
2019-01-23T23:09:29.644Z,101164.97
2019-01-23T23:11:56.794Z,101159.79
2019-01-23T23:14:23.896Z,101163.59
2019-01-23T23:16:53.958Z,101166.42
2019-01-23T23:19:24.114Z,101173.11
2019-01-23T23:21:51.207Z,101166.45
2019-01-23T23:24:18.309Z,101171.96
2019-01-23T23:26:45.405Z,101182.39
2019-01-23T23:29:12.500Z,101176.55
2019-01-23T23:31:50.540Z,101180.47
2019-01-23T23:34:22.199Z,101185.65
2019-01-23T23:37:11.022Z,101184.68
2019-01-23T23:39:38.332Z,101187.61
2019-01-23T23:42:05.424Z,101188.26
2019-01-23T23:44:32.592Z,101192.92
2019-01-23T23:46:59.709Z,101190.30
2019-01-23T23:49:28.616Z,101198.02
2019-01-23T23:51:55.723Z,101198.02
2019-01-23T23:54:22.868Z,101194.52
2019-01-23T23:56:49.964Z,101197.05
2019-01-23T23:59:21.356Z,101198.73
